Kezdőlap
METAR-TAF:

METAR-TAF

Repülőterek :

Arviat, Nunavut, Kanada

földrajzi szélesség: 61-06N, földrajzi hosszúság: 094-04W, magasság: 10 m

Jelenlegi meteorológiai megfigyelések

A jelentés 1 órával és 11 perccel ezelõtt készült, 16:00 UTC
Északnyugati szél 27 kt széllökések: 33 kt
Hőmérséklet -11°C
Páratartalom 85%
Légköri nyomás 1009 hPa
Látótávolság: 24.1 km
Borult 2700 lábon

METAR: CYEK 281600Z 32027G33KT 15SM OVC027 M11/M13 A2979 RMK SC8 SLP089

Idő: 12:11 (17:11 UTC)

Előrejelzés

A jelentés 3 órával és 3 perccel ezelõtt készült, 14:08 UTC
Az előrejelzés 28-én 14 óra UTC és 28-én 24 óra UTC között érvényes
Északnyugati szél 25 kt
Látótávolság: 10 km
Szakadozott felhőzet 2500 lábon
28-én 14 óra UTC és 28-én 24 óra UTC között ideiglenes
Látótávolság: 8.0 km
Szakadozott felhőzet 2000 lábon
hófúvás

TAF: CYEK 281408Z 2814/2824 31025KT P6SM BKN025 TEMPO 2814/2824 5SM BLSN BKN020 RMK FCST BASED ON AUTO OBS. NXT FCST BY 281800Z

Meteorológiai megfigyelések és előrejelzések több, mint 4000 repülőtéren (METAR és TAF jelentéseket).

A térképen piros és sárga pontok jelzik az elérhető meteorológiai állomásokat.

Mozgassa az egeret a pont fölött, hogy megjelenjen az állomás neve.

Azután kattintson az időjárási megfigyelések és előrejelzések megtekintéséhez.

A térkép megváltoztatása: kattintson a fekete keresztel jelölt zöld gombra ráközelítéshez, a vonallal jelölt zöld gombra távolításhoz, vagy a zöld nyilakra a szomszédos térképek eléréséhez.


METAR-TAF: